Time;durP1;ratioP1;P1;durP2;ratioP2;P2;SDS_P1;SDS_P2;PMS_P1;PMS_P2;Temp;Humidity;BMP_temperature;BMP_pressure;BME280_temperature;BME280_humidity;BME280_pressure;Samples;Min_cycle;Max_cycle;Signal;HPM_P1;HPM_P2
2022/09/18 00:00:16;;;;;;;7.32;2.85;;;;;;;15.15;52.20;101598.75;4937720;29;20043;-63
2022/09/18 00:02:43;;;;;;;5.85;3.10;;;;;;;14.99;52.86;101605.91;4920513;29;20534;-63
2022/09/18 00:05:11;;;;;;;6.80;3.30;;;;;;;15.11;52.45;101599.72;4939076;29;20060;-63
2022/09/18 00:07:38;;;;;;;8.63;2.90;;;;;;;14.67;52.74;101603.47;4908614;29;20055;-64
2022/09/18 00:10:05;;;;;;;8.65;3.30;;;;;;;14.68;52.91;101602.34;4924945;29;20128;-63
2022/09/18 00:12:33;;;;;;;10.85;3.53;;;;;;;14.47;53.58;101601.28;4941600;29;20048;-64
2022/09/18 00:15:00;;;;;;;6.07;2.90;;;;;;;14.62;53.59;101601.69;4941163;29;20056;-64
2022/09/18 00:17:27;;;;;;;7.88;3.13;;;;;;;14.91;53.13;101595.59;4941329;29;20051;-66
2022/09/18 00:19:54;;;;;;;9.00;3.28;;;;;;;14.73;53.42;101590.28;4941645;29;20087;-64
2022/09/18 00:22:21;;;;;;;9.32;3.78;;;;;;;14.58;54.04;101597.91;4941251;29;20705;-64
2022/09/18 00:24:49;;;;;;;8.00;3.10;;;;;;;14.78;52.99;101599.28;4941510;29;20051;-64
2022/09/18 00:27:16;;;;;;;7.78;3.05;;;;;;;14.58;53.32;101597.91;4924067;29;20063;-63
2022/09/18 00:29:43;;;;;;;7.22;2.92;;;;;;;14.70;53.84;101594.50;4924479;29;20074;-64
2022/09/18 00:32:10;;;;;;;9.65;2.75;;;;;;;14.52;53.68;101599.16;4908268;29;20052;-64
2022/09/18 00:34:40;;;;;;;6.18;2.65;;;;;;;14.72;54.15;101591.41;4924344;29;20056;-64
2022/09/18 00:37:07;;;;;;;6.22;2.50;;;;;;;14.41;53.48;101595.03;4941165;29;20058;-63
2022/09/18 00:39:34;;;;;;;5.80;2.42;;;;;;;14.82;54.08;101591.16;4941507;29;20047;-65
2022/09/18 00:42:02;;;;;;;5.57;2.45;;;;;;;14.86;52.97;101587.41;4940870;29;20051;-64
2022/09/18 00:44:43;;;;;;;5.40;2.40;;;;;;;14.10;54.65;101594.16;4941199;29;20062;-64
2022/09/18 00:47:11;;;;;;;5.88;2.53;;;;;;;14.68;53.94;101597.59;4940736;29;20067;-63
2022/09/18 00:50:03;;;;;;;6.43;2.28;;;;;;;14.60;53.59;101594.81;4924144;29;20063;-63
2022/09/18 00:52:50;;;;;;;7.07;2.65;;;;;;;15.01;53.51;101592.50;4923093;29;20066;-64
2022/09/18 00:55:22;;;;;;;7.15;2.90;;;;;;;14.37;53.86;101594.03;4923747;29;20055;-64
2022/09/18 00:57:53;;;;;;;7.50;2.80;;;;;;;14.78;54.56;101596.53;4924314;29;20066;-64
2022/09/18 01:00:21;;;;;;;6.70;2.20;;;;;;;14.77;53.77;101603.19;4940438;29;20047;-64
2022/09/18 01:02:49;;;;;;;5.40;2.40;;;;;;;14.45;53.87;101593.25;4924386;29;20044;-64
2022/09/18 01:05:59;;;;;;;6.18;2.28;;;;;;;14.72;53.71;101597.78;4923469;29;20051;-63
2022/09/18 01:08:38;;;;;;;6.80;2.50;;;;;;;14.32;54.12;101604.44;4908343;29;20070;-63
2022/09/18 01:11:31;;;;;;;6.95;2.75;;;;;;;14.91;54.53;101598.34;4924293;29;20071;-64
2022/09/18 01:14:17;;;;;;;5.50;2.28;;;;;;;14.94;53.82;101602.47;4923672;29;20491;-64
2022/09/18 01:17:10;;;;;;;7.32;2.08;;;;;;;14.92;52.92;101597.22;4939612;29;20051;-64
2022/09/18 01:19:51;;;;;;;7.03;2.17;;;;;;;14.41;54.23;101594.22;4923658;29;20419;-63
2022/09/18 01:22:48;;;;;;;5.88;1.98;;;;;;;14.49;55.16;101601.75;4907281;29;20063;-63
2022/09/18 01:25:45;;;;;;;5.22;2.10;;;;;;;14.65;54.33;101591.88;4940364;29;20052;-64
2022/09/18 01:28:30;;;;;;;5.55;2.20;;;;;;;14.36;52.62;101588.81;4940579;29;20054;-64
2022/09/18 01:31:09;;;;;;;5.18;1.98;;;;;;;14.07;55.30;101586.47;4904108;29;20051;-63
2022/09/18 01:33:45;;;;;;;5.78;1.88;;;;;;;14.24;54.83;101588.53;4883015;29;20056;-63
2022/09/18 01:36:14;;;;;;;6.32;2.25;;;;;;;14.54;54.82;101584.97;4927172;29;20058;-64
2022/09/18 01:38:51;;;;;;;5.07;1.80;;;;;;;14.23;55.03;101589.66;4889224;29;20055;-63
2022/09/18 01:41:22;;;;;;;7.95;1.98;;;;;;;14.57;53.80;101587.94;4897373;29;20051;-64
2022/09/18 01:43:56;;;;;;;4.35;1.80;;;;;;;14.54;54.71;101585.81;4923691;29;20062;-64
2022/09/18 01:46:24;;;;;;;6.30;2.08;;;;;;;14.40;55.00;101596.16;4906666;29;20068;-64
2022/09/18 01:49:19;;;;;;;4.68;2.00;;;;;;;13.92;53.85;101597.94;4906863;29;20059;-65
2022/09/18 01:52:12;;;;;;;4.85;1.80;;;;;;;14.64;54.78;101593.03;4904955;29;20060;-63
2022/09/18 01:54:44;;;;;;;5.85;2.10;;;;;;;14.78;53.91;101584.59;4907681;29;20063;-65
2022/09/18 01:57:22;;;;;;;7.18;1.65;;;;;;;14.13;54.89;101599.06;4922768;29;20047;-63
2022/09/18 01:59:57;;;;;;;8.32;2.08;;;;;;;13.71;55.88;101582.94;4891575;29;20383;-63
2022/09/18 02:02:51;;;;;;;4.82;1.90;;;;;;;14.04;56.06;101578.78;4906870;29;20079;-63
2022/09/18 02:05:38;;;;;;;3.42;1.67;;;;;;;14.48;55.02;101578.78;4922356;29;20095;-64
2022/09/18 02:08:10;;;;;;;4.47;1.63;;;;;;;14.32;54.45;101579.47;4907332;29;20051;-64
2022/09/18 02:10:43;;;;;;;5.07;1.73;;;;;;;13.87;54.91;101578.69;4906805;29;20074;-63
2022/09/18 02:13:17;;;;;;;4.18;1.75;;;;;;;14.02;56.43;101578.28;4922924;29;20059;-66
2022/09/18 02:15:46;;;;;;;4.47;1.73;;;;;;;13.57;56.95;101576.63;4921832;29;20055;-64
2022/09/18 02:18:23;;;;;;;6.78;1.90;;;;;;;13.80;56.02;101577.47;4922829;29;20067;-63
2022/09/18 02:20:51;;;;;;;5.63;1.95;;;;;;;14.08;55.75;101581.75;4939074;29;20047;-64
2022/09/18 02:23:18;;;;;;;4.55;1.50;;;;;;;13.94;55.12;101578.22;4922836;29;20054;-64
2022/09/18 02:25:54;;;;;;;5.72;2.03;;;;;;;13.60;56.85;101577.97;4906531;29;20063;-64
2022/09/18 02:28:23;;;;;;;7.78;2.20;;;;;;;13.48;57.26;101584.84;4906437;29;20044;-64
2022/09/18 02:30:50;;;;;;;4.60;1.70;;;;;;;13.80;56.73;101583.84;4906259;29;20055;-64
2022/09/18 02:33:31;;;;;;;7.38;2.28;;;;;;;13.90;56.20;101578.03;4922482;29;20059;-63
2022/09/18 02:36:24;;;;;;;5.30;1.92;;;;;;;14.28;55.92;101573.75;4921791;29;20084;-64
2022/09/18 02:39:13;;;;;;;3.72;1.70;;;;;;;14.43;54.86;101570.59;4922111;29;20063;-63
2022/09/18 02:42:11;;;;;;;7.03;2.40;;;;;;;14.49;53.97;101574.03;4921446;29;20396;-63
2022/09/18 02:45:08;;;;;;;6.93;2.28;;;;;;;14.28;55.21;101584.00;4906405;29;20497;-64
2022/09/18 02:47:52;;;;;;;5.47;1.90;;;;;;;14.09;55.67;101575.06;4894423;29;20055;-64
2022/09/18 02:50:35;;;;;;;7.32;2.10;;;;;;;14.40;55.89;101567.66;4921439;29;20056;-65
2022/09/18 02:53:14;;;;;;;3.35;1.58;;;;;;;14.21;53.88;101564.25;4903099;29;20059;-65
2022/09/18 02:55:46;;;;;;;6.15;1.83;;;;;;;13.22;57.09;101564.41;4906882;29;20403;-65
2022/09/18 02:58:18;;;;;;;3.78;1.60;;;;;;;13.45;58.22;101566.13;4922291;29;20078;-63
2022/09/18 03:00:50;;;;;;;4.93;1.73;;;;;;;13.92;56.86;101553.63;4890209;29;20051;-65
2022/09/18 03:03:25;;;;;;;5.90;1.83;;;;;;;14.27;56.06;101555.50;4906938;29;20082;-65
2022/09/18 03:05:57;;;;;;;3.78;1.80;;;;;;;13.95;56.32;101549.38;4906335;29;20503;-63
2022/09/18 03:08:24;;;;;;;6.60;2.13;;;;;;;14.12;55.84;101553.09;4921919;29;20393;-63
2022/09/18 03:10:53;;;;;;;9.02;2.05;;;;;;;14.04;56.79;101547.50;4921056;29;20516;-63
2022/09/18 03:13:20;;;;;;;5.68;1.95;;;;;;;14.30;55.75;101546.53;4921763;29;20055;-63
2022/09/18 03:15:48;;;;;;;5.72;1.90;;;;;;;13.99;55.26;101553.16;4905212;29;20419;-63
2022/09/18 03:18:15;;;;;;;6.05;2.38;;;;;;;13.75;57.42;101545.19;4921878;29;20063;-63
2022/09/18 03:20:42;;;;;;;8.07;2.00;;;;;;;13.67;58.22;101550.66;4921364;29;20451;-64
2022/09/18 03:23:10;;;;;;;7.22;1.67;;;;;;;14.06;56.98;101542.47;4921654;29;20063;-64
2022/09/18 03:25:39;;;;;;;7.82;2.20;;;;;;;14.20;56.49;101532.13;4905561;29;20055;-65
2022/09/18 03:28:07;;;;;;;6.05;1.92;;;;;;;14.15;54.84;101538.63;4921592;29;20075;-65
2022/09/18 03:30:38;;;;;;;6.25;2.15;;;;;;;13.98;56.54;101546.00;4920333;29;20062;-65
2022/09/18 03:33:06;;;;;;;6.10;2.15;;;;;;;13.41;56.72;101545.72;4938808;29;20052;-65
2022/09/18 03:35:33;;;;;;;4.13;1.80;;;;;;;13.13;58.93;101544.16;4921230;29;20075;-65
2022/09/18 03:38:00;;;;;;;6.43;1.77;;;;;;;13.75;57.94;101536.06;4922352;29;20052;-66
2022/09/18 03:40:30;;;;;;;10.15;2.03;;;;;;;13.11;58.28;101543.63;4921014;29;20062;-65
2022/09/18 03:43:00;;;;;;;6.05;2.53;;;;;;;12.87;59.54;101543.03;4921385;29;20048;-65
2022/09/18 03:45:27;;;;;;;7.40;2.13;;;;;;;13.52;57.77;101538.81;4920384;29;20056;-65
2022/09/18 03:47:55;;;;;;;5.85;1.95;;;;;;;13.54;59.17;101539.34;4921557;29;20051;-64
2022/09/18 03:50:23;;;;;;;5.03;1.95;;;;;;;12.60;60.33;101543.06;4921006;29;20059;-65
2022/09/18 03:52:51;;;;;;;7.18;1.75;;;;;;;13.51;59.30;101528.88;4921421;29;20137;-65
2022/09/18 03:55:34;;;;;;;5.82;1.95;;;;;;;13.92;57.74;101534.22;4903923;29;20060;-65
2022/09/18 03:58:24;;;;;;;5.18;1.65;;;;;;;13.94;57.61;101528.38;4938234;29;20086;-65
2022/09/18 04:01:12;;;;;;;4.15;1.80;;;;;;;13.70;57.46;101525.94;4937671;29;20499;-65
2022/09/18 04:04:00;;;;;;;6.75;1.90;;;;;;;13.23;58.58;101532.06;4891267;29;20060;-65
2022/09/18 04:06:47;;;;;;;5.10;1.50;;;;;;;13.79;56.99;101528.78;4935301;29;20056;-65
2022/09/18 04:09:33;;;;;;;5.68;1.73;;;;;;;13.51;57.34;101539.94;4938213;29;20502;-64
2022/09/18 04:12:01;;;;;;;4.68;2.00;;;;;;;13.66;58.74;101540.72;4937904;29;20051;-64
2022/09/18 04:14:28;;;;;;;6.38;2.35;;;;;;;13.59;58.18;101541.16;4921242;29;20451;-64
2022/09/18 04:16:57;;;;;;;8.00;1.90;;;;;;;13.80;58.53;101536.75;4920570;29;20052;-64
2022/09/18 04:19:25;;;;;;;5.78;1.90;;;;;;;13.39;59.05;101530.53;4921014;29;20059;-64
2022/09/18 04:21:52;;;;;;;5.18;1.75;;;;;;;12.87;59.38;101534.72;4920570;29;20059;-66
2022/09/18 04:24:21;;;;;;;4.50;1.88;;;;;;;13.17;59.87;101534.09;4920472;29;20056;-65
2022/09/18 04:26:48;;;;;;;5.72;1.85;;;;;;;13.60;58.58;101541.97;4920694;29;20056;-65
2022/09/18 04:29:19;;;;;;;6.13;1.92;;;;;;;13.73;58.46;101538.31;4920126;29;20056;-65
2022/09/18 04:31:48;;;;;;;7.77;1.77;;;;;;;14.23;57.76;101535.06;4920697;29;20438;-65
2022/09/18 04:34:17;;;;;;;6.00;1.77;;;;;;;14.26;57.30;101534.47;4920459;29;20620;-65
2022/09/18 04:36:44;;;;;;;3.08;1.58;;;;;;;13.99;56.21;101534.59;4905175;29;20052;-65
2022/09/18 04:39:11;;;;;;;5.07;1.73;;;;;;;13.60;58.39;101526.16;4905353;29;20060;-68
2022/09/18 04:41:39;;;;;;;5.53;1.70;;;;;;;13.99;57.53;101531.00;4905103;29;20561;-65
2022/09/18 04:44:07;;;;;;;6.95;2.20;;;;;;;13.20;59.10;101535.41;4920976;29;20052;-65
2022/09/18 04:46:34;;;;;;;6.30;1.90;;;;;;;13.75;58.53;101542.44;4919889;29;20059;-64
2022/09/18 04:49:02;;;;;;;4.55;1.40;;;;;;;14.11;57.52;101542.31;4920947;29;20052;-65
2022/09/18 04:51:29;;;;;;;6.53;1.85;;;;;;;13.85;57.50;101544.09;4904771;29;20503;-64
2022/09/18 04:53:56;;;;;;;4.25;1.50;;;;;;;14.25;56.96;101535.56;4939830;29;20063;-64
2022/09/18 04:56:24;;;;;;;4.88;1.58;;;;;;;13.74;56.89;101539.97;4923577;29;20063;-66
2022/09/18 04:58:52;;;;;;;6.35;1.88;;;;;;;12.89;60.07;101548.25;4923800;29;20059;-64
2022/09/18 05:01:21;;;;;;;4.10;1.75;;;;;;;13.37;58.82;101546.66;4923250;29;20495;-64
2022/09/18 05:03:49;;;;;;;6.05;1.80;;;;;;;12.59;61.19;101555.22;4908126;29;20056;-64
2022/09/18 05:06:27;;;;;;;5.38;1.60;;;;;;;12.49;62.28;101549.88;4923531;29;20078;-66
2022/09/18 05:08:54;;;;;;;4.95;1.88;;;;;;;13.18;60.64;101546.00;4923952;29;20067;-65
2022/09/18 05:11:24;;;;;;;5.15;1.65;;;;;;;13.51;59.85;101545.47;4922594;29;20059;-66
2022/09/18 05:13:55;;;;;;;4.47;1.77;;;;;;;13.82;58.65;101555.81;4908412;29;20407;-67
2022/09/18 05:16:24;;;;;;;6.30;1.67;;;;;;;13.62;59.04;101557.13;4923056;29;20071;-66
2022/09/18 05:19:11;;;;;;;7.05;2.10;;;;;;;14.19;58.48;101553.44;4924024;29;20058;-66
2022/09/18 05:21:38;;;;;;;5.65;1.50;;;;;;;14.04;57.81;101553.03;4923405;29;20048;-66
2022/09/18 05:24:07;;;;;;;5.53;1.55;;;;;;;14.13;56.73;101546.44;4923768;29;20518;-66
2022/09/18 05:26:34;;;;;;;5.68;1.80;;;;;;;14.11;58.01;101556.19;4922908;29;20051;-65
2022/09/18 05:29:01;;;;;;;6.20;2.00;;;;;;;14.34;57.42;101549.50;4923508;29;20055;-66
2022/09/18 05:31:29;;;;;;;4.50;1.65;;;;;;;13.93;58.09;101551.69;4922828;29;20056;-65
2022/09/18 05:33:57;;;;;;;7.30;2.15;;;;;;;14.24;57.01;101553.31;4923625;29;20146;-64
2022/09/18 05:36:24;;;;;;;11.10;1.70;;;;;;;14.39;56.79;101552.97;4906876;29;20063;-64
2022/09/18 05:38:52;;;;;;;6.50;1.80;;;;;;;14.09;57.54;101547.34;4923403;29;20052;-64
2022/09/18 05:41:19;;;;;;;7.38;2.10;;;;;;;14.26;57.63;101553.84;4922982;29;20063;-66
2022/09/18 05:43:46;;;;;;;7.28;1.80;;;;;;;13.78;57.51;101557.56;4923478;29;20051;-66
2022/09/18 05:46:14;;;;;;;7.03;1.67;;;;;;;13.62;58.27;101553.53;4906325;29;20055;-66
2022/09/18 05:48:49;;;;;;;8.77;1.98;;;;;;;13.52;57.67;101563.75;4923472;29;20052;-65
2022/09/18 05:51:16;;;;;;;5.30;1.65;;;;;;;13.68;59.12;101563.38;4922782;29;20062;-65
2022/09/18 05:53:47;;;;;;;5.30;1.77;;;;;;;13.93;58.27;101560.00;4923118;29;20050;-66
2022/09/18 05:56:20;;;;;;;11.35;2.55;;;;;;;14.02;58.22;101558.91;4915775;29;20051;-64
2022/09/18 05:58:47;;;;;;;4.53;1.80;;;;;;;14.05;58.66;101555.47;4931835;29;20067;-65
2022/09/18 06:01:14;;;;;;;8.40;1.77;;;;;;;14.21;57.44;101556.72;4906429;29;20047;-66
2022/09/18 06:04:02;;;;;;;6.47;1.70;;;;;;;13.91;58.26;101567.78;4921244;29;20056;-65
2022/09/18 06:06:41;;;;;;;5.30;1.60;;;;;;;13.85;57.78;101557.97;4906881;29;20059;-65
2022/09/18 06:09:09;;;;;;;4.53;1.58;;;;;;;13.90;58.58;101558.66;4923203;29;20063;-66
2022/09/18 06:11:36;;;;;;;9.18;2.00;;;;;;;14.23;57.67;101546.16;4922347;29;20643;-67
2022/09/18 06:14:04;;;;;;;6.82;1.95;;;;;;;13.79;58.09;101559.22;4922180;29;20048;-66
2022/09/18 06:16:33;;;;;;;3.95;1.35;;;;;;;13.79;58.98;101564.78;4922381;29;20608;-66
2022/09/18 06:19:08;;;;;;;5.57;1.70;;;;;;;13.81;57.81;101568.84;4922774;29;20056;-67
2022/09/18 06:21:35;;;;;;;7.00;2.25;;;;;;;13.65;59.76;101566.78;4906935;29;20121;-66
2022/09/18 06:24:05;;;;;;;6.35;1.60;;;;;;;13.96;58.51;101576.78;4904560;29;20060;-67
2022/09/18 06:26:38;;;;;;;3.80;1.52;;;;;;;14.26;58.38;101572.47;4914836;29;20058;-66
2022/09/18 06:29:06;;;;;;;3.90;1.55;;;;;;;14.34;57.76;101568.91;4922477;29;20058;-67
2022/09/18 06:31:44;;;;;;;5.07;2.05;;;;;;;14.17;57.71;101575.16;4938534;29;20047;-66
2022/09/18 06:34:17;;;;;;;4.97;1.58;;;;;;;14.01;58.17;101575.84;4923719;29;20047;-67
2022/09/18 06:36:45;;;;;;;4.68;1.80;;;;;;;14.48;57.55;101576.00;4922522;29;20419;-66
2022/09/18 06:39:48;;;;;;;5.03;1.65;;;;;;;13.85;58.87;101577.34;4918215;29;20051;-66
2022/09/18 06:42:38;;;;;;;5.05;1.95;;;;;;;14.32;57.93;101579.47;4937903;29;20063;-68
2022/09/18 06:45:27;;;;;;;4.70;1.58;;;;;;;14.29;57.24;101577.34;4909011;29;20052;-67
2022/09/18 06:48:01;;;;;;;7.03;1.92;;;;;;;13.71;58.27;101580.16;4907371;29;20051;-66
2022/09/18 06:50:29;;;;;;;4.82;1.65;;;;;;;13.56;59.11;101573.03;4921975;29;20083;-66
2022/09/18 06:53:05;;;;;;;6.20;1.95;;;;;;;14.10;58.87;101579.50;4922463;29;20054;-66
2022/09/18 06:55:41;;;;;;;10.70;2.00;;;;;;;14.02;59.09;101580.22;4922676;29;20403;-67
2022/09/18 06:58:08;;;;;;;5.72;1.58;;;;;;;14.02;58.94;101572.75;4921560;29;20044;-67
2022/09/18 07:00:36;;;;;;;5.10;1.85;;;;;;;14.34;58.22;101568.91;4920852;29;20082;-67
2022/09/18 07:03:03;;;;;;;6.75;1.80;;;;;;;13.43;59.12;101570.31;4922353;29;20051;-67
2022/09/18 07:05:41;;;;;;;6.68;1.90;;;;;;;13.40;60.17;101566.22;4938341;29;20760;-68
2022/09/18 07:08:15;;;;;;;6.53;2.00;;;;;;;13.70;59.91;101570.25;4920928;29;20604;-67
2022/09/18 07:10:43;;;;;;;6.78;1.80;;;;;;;14.02;59.67;101566.38;4921744;29;20427;-70
2022/09/18 07:13:10;;;;;;;4.38;1.58;;;;;;;14.49;58.24;101568.47;4938880;29;20058;-66
2022/09/18 07:15:47;;;;;;;7.00;2.10;;;;;;;13.74;58.84;101568.47;4920530;29;20055;-65
2022/09/18 07:18:15;;;;;;;8.73;1.75;;;;;;;13.67;59.68;101573.63;4906276;29;20071;-65
2022/09/18 07:20:42;;;;;;;5.70;1.52;;;;;;;13.62;60.48;101578.44;4911063;29;20047;-66
2022/09/18 07:23:10;;;;;;;7.57;1.63;;;;;;;13.85;60.46;101582.88;4886468;29;20052;-65
2022/09/18 07:25:44;;;;;;;5.18;1.80;;;;;;;13.85;60.16;101580.94;4912791;29;20047;-65
2022/09/18 07:28:12;;;;;;;6.72;1.70;;;;;;;13.87;59.99;101577.84;4901912;29;20508;-65
2022/09/18 07:30:46;;;;;;;6.88;2.00;;;;;;;13.91;60.27;101576.91;4912940;29;20059;-66
2022/09/18 07:33:14;;;;;;;6.22;2.03;;;;;;;13.92;59.55;101577.72;4914822;29;20048;-67
2022/09/18 07:35:46;;;;;;;6.82;2.22;;;;;;;14.59;58.52;101571.78;4904683;29;20060;-66
2022/09/18 07:38:16;;;;;;;9.43;4.70;;;;;;;15.21;57.08;101572.50;4905379;29;20043;-67
2022/09/18 07:40:50;;;;;;;7.03;2.63;;;;;;;15.11;57.40;101571.97;4918048;29;20056;-61
2022/09/18 07:43:44;;;;;;;7.95;1.83;;;;;;;15.18;56.38;101572.31;4919235;29;20427;-65
2022/09/18 07:46:11;;;;;;;8.00;1.65;;;;;;;15.68;54.90;101574.38;4909368;29;20079;-68
2022/09/18 07:48:39;;;;;;;4.05;1.45;;;;;;;15.42;55.32;101579.09;4937636;29;20051;-66
2022/09/18 07:51:14;;;;;;;11.38;2.25;;;;;;;15.34;55.65;101573.50;4920909;29;20067;-66
2022/09/18 07:53:55;;;;;;;10.02;1.70;;;;;;;15.29;55.95;101577.22;4921590;29;20519;-66
2022/09/18 07:56:42;;;;;;;6.25;1.85;;;;;;;15.22;55.76;101584.44;4937445;29;20407;-69
2022/09/18 07:59:16;;;;;;;6.40;1.80;;;;;;;15.62;54.81;101578.44;4891111;29;20039;-67
2022/09/18 08:01:46;;;;;;;4.50;1.50;;;;;;;15.69;53.88;101583.53;4920973;29;20063;-67
2022/09/18 08:04:14;;;;;;;7.97;1.80;;;;;;;15.66;54.37;101585.00;4921402;29;20491;-66
2022/09/18 08:07:17;;;;;;;5.82;1.52;;;;;;;15.59;54.52;101579.09;4870208;29;20066;-64
2022/09/18 08:10:17;;;;;;;8.68;1.90;;;;;;;15.59;55.01;101583.84;4904086;29;20079;-66
2022/09/18 08:13:03;;;;;;;7.47;1.65;;;;;;;15.51;55.59;101584.66;4906805;29;20055;-67
2022/09/18 08:15:48;;;;;;;4.18;1.60;;;;;;;15.14;56.17;101591.56;4897157;29;20052;-66
2022/09/18 08:18:27;;;;;;;7.07;1.95;;;;;;;15.42;56.79;101587.44;4933913;29;20047;-65
2022/09/18 08:20:59;;;;;;;5.82;1.75;;;;;;;15.66;55.48;101585.00;4933750;29;20052;-69
2022/09/18 08:23:38;;;;;;;4.87;1.80;;;;;;;14.88;57.84;101589.84;4909276;29;20039;-67
2022/09/18 08:26:07;;;;;;;4.53;1.38;;;;;;;15.30;57.46;101589.16;4910593;29;20327;-66
2022/09/18 08:28:35;;;;;;;7.95;2.10;;;;;;;15.60;56.45;101588.25;4894079;29;20608;-65
2022/09/18 08:31:04;;;;;;;5.97;1.48;;;;;;;15.41;56.41;101588.53;4907631;29;20407;-66
2022/09/18 08:33:32;;;;;;;5.80;1.77;;;;;;;15.77;55.91;101580.75;4905489;29;20051;-66
2022/09/18 08:36:00;;;;;;;7.68;2.03;;;;;;;16.02;54.93;101587.44;4909015;29;20431;-68
2022/09/18 08:38:33;;;;;;;4.68;1.65;;;;;;;15.47;56.08;101578.94;4890143;29;20071;-64
2022/09/18 08:41:48;;;;;;;8.48;1.90;;;;;;;15.10;57.85;101587.81;4932609;29;20495;-65
2022/09/18 08:44:23;;;;;;;5.97;1.50;;;;;;;15.30;57.63;101586.38;4923291;29;20062;-67
2022/09/18 08:47:02;;;;;;;5.22;1.45;;;;;;;15.85;56.04;101587.44;4929859;29;20070;-67
2022/09/18 08:49:46;;;;;;;5.72;2.08;;;;;;;15.66;56.16;101585.00;4903962;29;20063;-65
2022/09/18 08:52:23;;;;;;;6.57;1.30;;;;;;;15.91;55.47;101588.09;4923603;29;20058;-66
2022/09/18 08:55:05;;;;;;;5.55;1.85;;;;;;;15.96;55.44;101588.75;4883568;29;20664;-66
2022/09/18 08:57:46;;;;;;;7.63;1.50;;;;;;;16.11;54.76;101596.56;4905148;29;20044;-67
2022/09/18 09:00:21;;;;;;;3.47;1.45;;;;;;;15.51;56.41;101595.75;4893052;29;20059;-66
2022/09/18 09:03:17;;;;;;;5.72;1.67;;;;;;;15.99;55.62;101582.50;4904408;29;20060;-66
2022/09/18 09:05:49;;;;;;;5.35;2.20;;;;;;;16.38;54.57;101582.28;4922255;29;20201;-68
2022/09/18 09:08:44;;;;;;;9.07;2.00;;;;;;;16.24;54.25;101580.84;4907663;29;20048;-66
2022/09/18 09:11:41;;;;;;;6.22;1.30;;;;;;;16.28;54.44;101588.22;4899546;29;20048;-66
2022/09/18 09:14:26;;;;;;;5.57;1.42;;;;;;;16.61;53.72;101572.59;4921291;29;20045;-66
2022/09/18 09:17:28;;;;;;;6.30;1.33;;;;;;;16.78;52.85;101569.75;4920615;29;20059;-68
2022/09/18 09:20:06;;;;;;;6.55;1.30;;;;;;;16.84;51.78;101568.38;4921460;29;20063;-68
2022/09/18 09:22:59;;;;;;;5.25;1.40;;;;;;;16.86;52.09;101559.69;4917358;29;20064;-66
2022/09/18 09:25:55;;;;;;;4.25;1.30;;;;;;;16.88;51.37;101566.56;4906230;29;20067;-65
2022/09/18 09:29:01;;;;;;;4.40;1.33;;;;;;;16.59;50.95;101562.94;4937728;29;20070;-68
2022/09/18 09:31:54;;;;;;;7.88;1.38;;;;;;;16.80;52.38;101566.63;4925468;29;20064;-65
2022/09/18 09:34:45;;;;;;;3.67;1.10;;;;;;;16.58;50.70;101561.31;4904331;29;20048;-65
2022/09/18 09:37:42;;;;;;;5.07;1.63;;;;;;;16.66;49.30;101557.69;4938670;29;20051;-65
2022/09/18 09:40:38;;;;;;;5.22;1.45;;;;;;;17.04;50.06;101554.84;4905508;29;20058;-65
2022/09/18 09:43:24;;;;;;;4.15;1.45;;;;;;;17.00;49.51;101562.28;4902429;29;20047;-67
2022/09/18 09:45:53;;;;;;;2.97;1.00;;;;;;;16.63;49.53;101563.91;4920363;29;20062;-64
2022/09/18 09:48:53;;;;;;;4.65;1.15;;;;;;;16.99;49.31;101557.84;4901583;29;20058;-64
2022/09/18 09:51:31;;;;;;;6.15;1.20;;;;;;;17.36;48.48;101557.78;4884758;29;20052;-66
2022/09/18 09:54:00;;;;;;;4.90;1.30;;;;;;;17.52;47.82;101556.03;4907446;29;20062;-66
2022/09/18 09:57:02;;;;;;;4.82;1.10;;;;;;;17.39;47.43;101554.31;4910025;29;20495;-65
2022/09/18 09:59:57;;;;;;;4.70;1.50;;;;;;;17.38;47.63;101551.88;4899133;29;20059;-65
2022/09/18 10:03:03;;;;;;;5.53;1.35;;;;;;;17.77;45.81;101545.81;4939784;29;20051;-65
2022/09/18 10:05:43;;;;;;;3.20;1.02;;;;;;;17.56;47.45;101547.81;4919999;29;20047;-67
2022/09/18 10:08:35;;;;;;;5.43;1.50;;;;;;;17.65;47.12;101546.59;4907036;29;20062;-64
2022/09/18 10:11:10;;;;;;;3.67;1.45;;;;;;;17.46;46.22;101549.03;4916239;29;20058;-66
2022/09/18 10:13:47;;;;;;;5.97;1.40;;;;;;;17.38;46.09;101546.28;4917722;29;20062;-66
2022/09/18 10:16:18;;;;;;;2.85;0.95;;;;;;;17.24;46.14;101549.34;4909246;29;20048;-66
2022/09/18 10:18:47;;;;;;;5.03;1.45;;;;;;;17.27;46.32;101545.88;4910988;29;20063;-66
2022/09/18 10:21:16;;;;;;;4.45;1.25;;;;;;;17.13;46.01;101548.09;4922275;29;20380;-66
2022/09/18 10:24:10;;;;;;;4.38;1.20;;;;;;;16.96;46.34;101539.88;4922463;29;20052;-68
2022/09/18 10:26:50;;;;;;;5.05;1.40;;;;;;;17.03;46.07;101536.53;4924444;29;20051;-66
2022/09/18 10:29:18;;;;;;;;;;;;;;;17.09;46.65;101532.38;4919628;29;20055;-66
2022/09/18 10:31:54;;;;;;;5.32;1.63;;;;;;;17.24;45.92;101538.22;4921805;29;19923;-66
2022/09/18 10:34:35;;;;;;;4.13;1.45;;;;;;;16.90;46.82;101532.84;4918543;29;20056;-67
2022/09/18 10:37:04;;;;;;;3.40;1.00;;;;;;;17.25;46.07;101533.44;4934866;29;20059;-66
2022/09/18 10:39:33;;;;;;;3.70;1.20;;;;;;;17.43;46.28;101521.03;4900661;29;20671;-66
2022/09/18 10:42:05;;;;;;;5.18;1.20;;;;;;;17.62;45.56;101524.16;4916466;29;20051;-68
2022/09/18 10:44:46;;;;;;;5.68;1.52;;;;;;;17.31;46.07;101526.53;4903858;29;20055;-67
2022/09/18 10:47:22;;;;;;;4.32;1.17;;;;;;;17.28;45.60;101532.75;4919570;29;20410;-70
2022/09/18 11:49:10;;;;;;;4.05;1.20;;;;;;;17.28;44.73;101516.03;5325440;23;20067;-71
2022/09/18 11:51:57;;;;;;;8.32;1.40;;;;;;;17.32;45.23;101500.28;4907016;29;20071;-69
2022/09/18 11:54:43;;;;;;;6.60;1.30;;;;;;;17.56;44.44;101504.06;4916459;29;20048;-69
2022/09/18 11:57:21;;;;;;;8.93;1.73;;;;;;;17.50;44.54;101499.03;4899887;29;20499;-71
2022/09/18 12:00:11;;;;;;;3.25;1.27;;;;;;;17.50;45.18;101510.19;4915334;29;20467;-69
2022/09/18 12:03:00;;;;;;;6.47;1.67;;;;;;;17.65;45.20;101493.66;4908441;29;20063;-69
2022/09/18 12:05:43;;;;;;;5.10;1.27;;;;;;;17.73;44.73;101495.53;4924355;29;20075;-69
2022/09/18 12:08:16;;;;;;;5.63;1.40;;;;;;;17.91;44.37;101491.44;4919424;29;20056;-70
2022/09/18 12:10:54;;;;;;;2.47;1.35;;;;;;;17.74;44.35;101491.59;4909564;29;20056;-72
2022/09/18 12:13:45;;;;;;;4.15;1.42;;;;;;;18.29;43.19;101476.41;4909408;29;20495;-70
2022/09/18 12:16:23;;;;;;;3.72;1.08;;;;;;;18.03;42.85;101490.63;4919824;29;20419;-64
2022/09/18 12:19:18;;;;;;;3.10;0.82;;;;;;;17.92;43.64;101483.88;4905306;29;20534;-64
2022/09/18 12:21:48;;;;;;;3.97;1.25;;;;;;;17.88;43.26;101477.38;4918110;29;20452;-69
2022/09/18 12:24:17;;;;;;;4.07;1.50;;;;;;;17.95;42.89;101481.22;4935647;29;20052;-70
2022/09/18 12:27:24;;;;;;;7.15;1.15;;;;;;;17.98;43.11;101472.16;4930412;29;20048;-70
2022/09/18 12:30:13;;;;;;;3.10;1.20;;;;;;;18.17;43.28;101474.41;4922994;29;20063;-68
2022/09/18 12:33:13;;;;;;;3.35;1.13;;;;;;;18.28;43.28;101474.78;4922746;29;20066;-70
2022/09/18 12:36:06;;;;;;;4.78;1.48;;;;;;;18.21;43.24;101460.59;4922213;29;20067;-70
2022/09/18 12:38:39;;;;;;;5.13;1.13;;;;;;;18.59;42.68;101461.91;4923185;29;20098;-69
2022/09/18 12:41:28;;;;;;;5.03;1.33;;;;;;;18.51;42.09;101454.50;4923912;29;20153;-64
2022/09/18 12:44:12;;;;;;;2.67;1.17;;;;;;;18.55;42.53;101451.81;4892785;29;20060;-69
2022/09/18 12:46:42;;;;;;;5.57;1.35;;;;;;;18.42;43.15;101452.97;4902377;29;20044;-69
2022/09/18 12:49:14;;;;;;;3.15;1.08;;;;;;;18.15;43.29;101440.47;4938618;29;20067;-69
2022/09/18 12:51:46;;;;;;;3.75;1.23;;;;;;;18.08;43.88;101456.94;4906106;29;20064;-70
2022/09/18 12:54:13;;;;;;;5.03;1.08;;;;;;;18.18;43.85;101438.97;4930359;29;20070;-68
2022/09/18 12:57:06;;;;;;;5.03;1.08;;;;;;;18.48;42.67;101446.00;4936770;29;20048;-64
2022/09/18 13:00:10;;;;;;;4.20;1.30;;;;;;;18.66;42.78;101441.78;4922123;29;20055;-65
2022/09/18 13:02:57;;;;;;;5.53;1.30;;;;;;;18.84;41.80;101437.59;4919721;29;20060;-64
2022/09/18 13:05:34;;;;;;;4.22;0.90;;;;;;;18.86;42.96;101438.06;4938057;29;20052;-64